sensor_id;sensor_type;location;lat;lon;timestamp;P1;P2;P0
23240;PMS7003;11789;53.482;9.862;2023-11-19T00:01:48;4.75;4.75;3.00
23240;PMS7003;11789;53.482;9.862;2023-11-19T00:04:14;4.00;4.00;4.00
23240;PMS7003;11789;53.482;9.862;2023-11-19T00:06:39;6.50;4.00;2.00
23240;PMS7003;11789;53.482;9.862;2023-11-19T00:09:05;3.75;3.75;3.25
23240;PMS7003;11789;53.482;9.862;2023-11-19T00:11:30;6.00;6.00;4.50
23240;PMS7003;11789;53.482;9.862;2023-11-19T00:13:56;3.75;3.75;3.00
23240;PMS7003;11789;53.482;9.862;2023-11-19T00:16:21;6.00;6.00;3.75
23240;PMS7003;11789;53.482;9.862;2023-11-19T00:18:46;3.75;3.75;3.00
23240;PMS7003;11789;53.482;9.862;2023-11-19T00:21:12;4.25;4.25;3.00
23240;PMS7003;11789;53.482;9.862;2023-11-19T00:23:37;5.75;3.25;2.75
23240;PMS7003;11789;53.482;9.862;2023-11-19T00:26:03;4.00;4.00;3.25
23240;PMS7003;11789;53.482;9.862;2023-11-19T00:28:31;3.75;3.75;3.00
23240;PMS7003;11789;53.482;9.862;2023-11-19T00:30:58;2.00;2.00;1.75
23240;PMS7003;11789;53.482;9.862;2023-11-19T00:33:23;3.00;3.00;2.00
23240;PMS7003;11789;53.482;9.862;2023-11-19T00:35:49;3.00;3.00;2.00
23240;PMS7003;11789;53.482;9.862;2023-11-19T00:38:15;2.50;2.50;2.00
23240;PMS7003;11789;53.482;9.862;2023-11-19T00:40:41;2.50;2.00;2.00
23240;PMS7003;11789;53.482;9.862;2023-11-19T00:43:06;3.50;2.00;2.00
23240;PMS7003;11789;53.482;9.862;2023-11-19T00:45:32;1.25;1.00;1.00
23240;PMS7003;11789;53.482;9.862;2023-11-19T00:47:58;2.50;2.00;1.00
23240;PMS7003;11789;53.482;9.862;2023-11-19T00:50:24;2.50;2.00;2.00
23240;PMS7003;11789;53.482;9.862;2023-11-19T00:52:50;1.25;1.25;1.00
23240;PMS7003;11789;53.482;9.862;2023-11-19T00:55:16;1.75;1.75;1.00
23240;PMS7003;11789;53.482;9.862;2023-11-19T00:57:42;2.25;2.00;2.00
23240;PMS7003;11789;53.482;9.862;2023-11-19T01:00:08;3.00;1.50;1.50
23240;PMS7003;11789;53.482;9.862;2023-11-19T01:02:43;1.50;1.50;1.25
23240;PMS7003;11789;53.482;9.862;2023-11-19T01:05:09;0.00;0.00;0.00
23240;PMS7003;11789;53.482;9.862;2023-11-19T01:07:39;2.00;2.00;1.00
23240;PMS7003;11789;53.482;9.862;2023-11-19T01:10:05;1.50;1.50;1.00
23240;PMS7003;11789;53.482;9.862;2023-11-19T01:12:31;2.00;2.00;1.00
23240;PMS7003;11789;53.482;9.862;2023-11-19T01:14:56;1.00;1.00;1.00
23240;PMS7003;11789;53.482;9.862;2023-11-19T01:17:23;1.00;1.00;1.00
23240;PMS7003;11789;53.482;9.862;2023-11-19T01:19:48;1.00;1.00;1.00
23240;PMS7003;11789;53.482;9.862;2023-11-19T01:22:15;1.00;1.00;1.00
23240;PMS7003;11789;53.482;9.862;2023-11-19T01:24:40;2.00;0.50;0.00
23240;PMS7003;11789;53.482;9.862;2023-11-19T01:27:06;1.50;1.00;0.75
23240;PMS7003;11789;53.482;9.862;2023-11-19T01:29:31;0.00;0.00;0.00
23240;PMS7003;11789;53.482;9.862;2023-11-19T01:31:57;1.00;1.00;1.00
23240;PMS7003;11789;53.482;9.862;2023-11-19T01:34:22;0.50;0.50;0.00
23240;PMS7003;11789;53.482;9.862;2023-11-19T01:36:47;0.00;0.00;0.00
23240;PMS7003;11789;53.482;9.862;2023-11-19T01:39:14;0.00;0.00;0.00
23240;PMS7003;11789;53.482;9.862;2023-11-19T01:41:41;0.00;0.00;0.00
23240;PMS7003;11789;53.482;9.862;2023-11-19T01:44:07;0.00;0.00;0.00
23240;PMS7003;11789;53.482;9.862;2023-11-19T01:46:32;0.00;0.00;0.00
23240;PMS7003;11789;53.482;9.862;2023-11-19T01:48:59;0.00;0.00;0.00
23240;PMS7003;11789;53.482;9.862;2023-11-19T01:51:25;0.00;0.00;0.00
23240;PMS7003;11789;53.482;9.862;2023-11-19T01:53:52;0.00;0.00;0.00
23240;PMS7003;11789;53.482;9.862;2023-11-19T01:56:18;0.00;0.00;0.00
23240;PMS7003;11789;53.482;9.862;2023-11-19T01:58:45;0.00;0.00;0.00
23240;PMS7003;11789;53.482;9.862;2023-11-19T02:01:12;0.00;0.00;0.00
23240;PMS7003;11789;53.482;9.862;2023-11-19T02:03:38;0.00;0.00;0.00
23240;PMS7003;11789;53.482;9.862;2023-11-19T02:06:04;0.00;0.00;0.00
23240;PMS7003;11789;53.482;9.862;2023-11-19T02:08:30;0.00;0.00;0.00
23240;PMS7003;11789;53.482;9.862;2023-11-19T02:10:56;0.00;0.00;0.00
23240;PMS7003;11789;53.482;9.862;2023-11-19T02:13:22;0.00;0.00;0.00
23240;PMS7003;11789;53.482;9.862;2023-11-19T02:15:47;0.00;0.00;0.00
23240;PMS7003;11789;53.482;9.862;2023-11-19T02:18:20;2.00;0.25;0.25
23240;PMS7003;11789;53.482;9.862;2023-11-19T02:20:49;0.00;0.00;0.00
23240;PMS7003;11789;53.482;9.862;2023-11-19T02:23:16;0.00;0.00;0.00
23240;PMS7003;11789;53.482;9.862;2023-11-19T02:25:42;0.00;0.00;0.00
23240;PMS7003;11789;53.482;9.862;2023-11-19T02:28:12;0.00;0.00;0.00
23240;PMS7003;11789;53.482;9.862;2023-11-19T02:30:38;0.00;0.00;0.00
23240;PMS7003;11789;53.482;9.862;2023-11-19T02:33:03;0.00;0.00;0.00
23240;PMS7003;11789;53.482;9.862;2023-11-19T02:35:32;1.00;0.00;0.00
23240;PMS7003;11789;53.482;9.862;2023-11-19T02:37:58;0.00;0.00;0.00
23240;PMS7003;11789;53.482;9.862;2023-11-19T02:40:25;1.50;1.50;1.00
23240;PMS7003;11789;53.482;9.862;2023-11-19T02:42:51;0.00;0.00;0.00
23240;PMS7003;11789;53.482;9.862;2023-11-19T02:45:18;0.00;0.00;0.00
23240;PMS7003;11789;53.482;9.862;2023-11-19T02:47:43;1.00;1.00;1.00
23240;PMS7003;11789;53.482;9.862;2023-11-19T02:50:12;0.00;0.00;0.00
23240;PMS7003;11789;53.482;9.862;2023-11-19T02:52:44;1.00;1.00;0.25
23240;PMS7003;11789;53.482;9.862;2023-11-19T02:55:11;0.00;0.00;0.00
23240;PMS7003;11789;53.482;9.862;2023-11-19T02:57:39;1.00;1.00;1.00
23240;PMS7003;11789;53.482;9.862;2023-11-19T03:00:12;1.00;1.00;1.00
23240;PMS7003;11789;53.482;9.862;2023-11-19T03:02:42;2.50;1.00;1.00
23240;PMS7003;11789;53.482;9.862;2023-11-19T03:05:16;1.00;1.00;1.00
23240;PMS7003;11789;53.482;9.862;2023-11-19T03:07:42;1.00;1.00;1.00
23240;PMS7003;11789;53.482;9.862;2023-11-19T03:10:09;2.00;2.00;1.75
23240;PMS7003;11789;53.482;9.862;2023-11-19T03:12:38;1.00;1.00;1.00
23240;PMS7003;11789;53.482;9.862;2023-11-19T03:15:05;2.00;2.00;1.00
23240;PMS7003;11789;53.482;9.862;2023-11-19T03:17:30;1.00;1.00;1.00
23240;PMS7003;11789;53.482;9.862;2023-11-19T03:19:56;1.00;1.00;1.00
23240;PMS7003;11789;53.482;9.862;2023-11-19T03:22:21;2.00;2.00;2.00
23240;PMS7003;11789;53.482;9.862;2023-11-19T03:24:47;0.00;0.00;0.00
23240;PMS7003;11789;53.482;9.862;2023-11-19T03:27:12;1.75;1.75;1.00
23240;PMS7003;11789;53.482;9.862;2023-11-19T03:29:38;2.75;1.00;1.00
23240;PMS7003;11789;53.482;9.862;2023-11-19T03:32:03;2.00;2.00;1.00
23240;PMS7003;11789;53.482;9.862;2023-11-19T03:34:29;2.00;2.00;2.00
23240;PMS7003;11789;53.482;9.862;2023-11-19T03:36:55;2.00;2.00;2.00
23240;PMS7003;11789;53.482;9.862;2023-11-19T03:39:22;1.75;1.50;1.50
23240;PMS7003;11789;53.482;9.862;2023-11-19T03:41:50;3.00;3.00;2.00
23240;PMS7003;11789;53.482;9.862;2023-11-19T03:44:15;2.00;2.00;2.00
23240;PMS7003;11789;53.482;9.862;2023-11-19T03:46:41;2.00;2.00;1.75
23240;PMS7003;11789;53.482;9.862;2023-11-19T03:49:07;2.25;2.25;2.00
23240;PMS7003;11789;53.482;9.862;2023-11-19T03:51:32;5.50;4.00;3.00
23240;PMS7003;11789;53.482;9.862;2023-11-19T03:53:59;3.25;3.25;3.00
23240;PMS7003;11789;53.482;9.862;2023-11-19T03:56:25;5.50;5.50;4.50
23240;PMS7003;11789;53.482;9.862;2023-11-19T03:58:52;6.25;5.00;4.00
23240;PMS7003;11789;53.482;9.862;2023-11-19T04:01:17;7.25;7.25;5.25
23240;PMS7003;11789;53.482;9.862;2023-11-19T04:03:43;8.50;8.50;6.00
23240;PMS7003;11789;53.482;9.862;2023-11-19T04:06:08;9.75;8.50;5.50
23240;PMS7003;11789;53.482;9.862;2023-11-19T04:08:34;9.50;9.50;6.00
23240;PMS7003;11789;53.482;9.862;2023-11-19T04:11:00;13.75;12.50;9.25
23240;PMS7003;11789;53.482;9.862;2023-11-19T04:13:27;15.25;11.25;6.75
23240;PMS7003;11789;53.482;9.862;2023-11-19T04:15:53;12.50;11.50;7.00
23240;PMS7003;11789;53.482;9.862;2023-11-19T04:18:18;12.25;11.25;7.75
23240;PMS7003;11789;53.482;9.862;2023-11-19T04:20:43;16.00;15.00;9.25
23240;PMS7003;11789;53.482;9.862;2023-11-19T04:23:09;14.25;13.25;8.75
23240;PMS7003;11789;53.482;9.862;2023-11-19T04:25:35;18.00;17.25;10.75
23240;PMS7003;11789;53.482;9.862;2023-11-19T04:28:00;16.75;16.75;12.00
23240;PMS7003;11789;53.482;9.862;2023-11-19T04:30:27;60.00;46.67;29.67
23240;PMS7003;11789;53.482;9.862;2023-11-19T04:32:53;68.33;51.67;31.33
23240;PMS7003;11789;53.482;9.862;2023-11-19T04:35:18;43.75;36.25;23.25
23240;PMS7003;11789;53.482;9.862;2023-11-19T04:37:44;43.25;38.75;23.50
23240;PMS7003;11789;53.482;9.862;2023-11-19T04:40:09;71.00;55.00;29.33
23240;PMS7003;11789;53.482;9.862;2023-11-19T04:42:37;59.67;44.67;25.33
23240;PMS7003;11789;53.482;9.862;2023-11-19T04:45:05;46.00;39.25;24.75
23240;PMS7003;11789;53.482;9.862;2023-11-19T04:47:32;25.75;24.25;16.75
23240;PMS7003;11789;53.482;9.862;2023-11-19T04:49:58;27.00;24.75;14.50
23240;PMS7003;11789;53.482;9.862;2023-11-19T04:52:24;35.00;30.25;18.50
23240;PMS7003;11789;53.482;9.862;2023-11-19T04:54:49;33.50;28.50;15.00
23240;PMS7003;11789;53.482;9.862;2023-11-19T04:57:15;30.50;29.75;17.00
23240;PMS7003;11789;53.482;9.862;2023-11-19T04:59:40;43.50;36.50;22.25
23240;PMS7003;11789;53.482;9.862;2023-11-19T05:02:06;68.33;52.00;30.00
23240;PMS7003;11789;53.482;9.862;2023-11-19T05:04:33;40.00;32.50;20.75
23240;PMS7003;11789;53.482;9.862;2023-11-19T05:06:58;29.50;26.75;16.00
23240;PMS7003;11789;53.482;9.862;2023-11-19T05:09:24;27.75;27.75;16.75
23240;PMS7003;11789;53.482;9.862;2023-11-19T05:11:49;32.00;28.50;16.25
23240;PMS7003;11789;53.482;9.862;2023-11-19T05:14:15;34.25;30.75;17.00
23240;PMS7003;11789;53.482;9.862;2023-11-19T05:16:41;37.00;28.75;17.25
23240;PMS7003;11789;53.482;9.862;2023-11-19T05:19:07;29.25;23.50;13.75
23240;PMS7003;11789;53.482;9.862;2023-11-19T05:21:34;29.00;27.25;14.50
23240;PMS7003;11789;53.482;9.862;2023-11-19T05:23:59;34.75;28.00;17.00
23240;PMS7003;11789;53.482;9.862;2023-11-19T05:26:25;29.50;27.75;16.25
23240;PMS7003;11789;53.482;9.862;2023-11-19T05:28:51;23.50;23.50;15.00
23240;PMS7003;11789;53.482;9.862;2023-11-19T05:31:16;29.50;25.00;15.75
23240;PMS7003;11789;53.482;9.862;2023-11-19T05:33:43;28.50;27.75;15.75
23240;PMS7003;11789;53.482;9.862;2023-11-19T05:36:08;31.00;25.50;15.00
23240;PMS7003;11789;53.482;9.862;2023-11-19T05:38:36;27.00;27.00;15.25
23240;PMS7003;11789;53.482;9.862;2023-11-19T05:41:02;23.25;22.50;14.00
23240;PMS7003;11789;53.482;9.862;2023-11-19T05:43:28;31.00;29.00;17.75
23240;PMS7003;11789;53.482;9.862;2023-11-19T05:45:53;31.75;26.75;16.00
23240;PMS7003;11789;53.482;9.862;2023-11-19T05:48:18;38.25;29.75;17.25
23240;PMS7003;11789;53.482;9.862;2023-11-19T05:50:44;29.50;25.25;14.75
23240;PMS7003;11789;53.482;9.862;2023-11-19T05:53:09;33.50;27.75;17.00
23240;PMS7003;11789;53.482;9.862;2023-11-19T05:55:38;28.25;25.25;16.00
23240;PMS7003;11789;53.482;9.862;2023-11-19T05:58:11;29.50;25.75;16.00
23240;PMS7003;11789;53.482;9.862;2023-11-19T06:00:40;26.75;26.75;17.50
23240;PMS7003;11789;53.482;9.862;2023-11-19T06:03:06;29.75;26.00;15.25
23240;PMS7003;11789;53.482;9.862;2023-11-19T06:05:32;30.75;25.25;16.00
23240;PMS7003;11789;53.482;9.862;2023-11-19T06:07:58;25.50;22.75;14.00
23240;PMS7003;11789;53.482;9.862;2023-11-19T06:10:23;33.25;26.50;14.75
23240;PMS7003;11789;53.482;9.862;2023-11-19T06:12:56;31.50;24.50;15.75
23240;PMS7003;11789;53.482;9.862;2023-11-19T06:15:24;29.00;25.00;14.75
23240;PMS7003;11789;53.482;9.862;2023-11-19T06:17:51;23.25;22.25;13.25
23240;PMS7003;11789;53.482;9.862;2023-11-19T06:20:16;29.50;26.00;14.50
23240;PMS7003;11789;53.482;9.862;2023-11-19T06:22:43;31.50;23.00;13.50
23240;PMS7003;11789;53.482;9.862;2023-11-19T06:25:11;24.75;23.00;13.75
23240;PMS7003;11789;53.482;9.862;2023-11-19T06:27:37;25.25;22.25;15.25
23240;PMS7003;11789;53.482;9.862;2023-11-19T06:30:03;24.50;19.75;12.00
23240;PMS7003;11789;53.482;9.862;2023-11-19T06:32:28;28.25;23.25;14.50
23240;PMS7003;11789;53.482;9.862;2023-11-19T06:34:54;25.25;20.00;12.25
23240;PMS7003;11789;53.482;9.862;2023-11-19T06:37:19;28.50;24.25;15.75
23240;PMS7003;11789;53.482;9.862;2023-11-19T06:39:45;21.50;17.00;10.75
23240;PMS7003;11789;53.482;9.862;2023-11-19T06:42:10;25.75;24.00;13.50
23240;PMS7003;11789;53.482;9.862;2023-11-19T06:44:36;22.25;19.25;13.00
23240;PMS7003;11789;53.482;9.862;2023-11-19T06:47:01;23.00;20.00;12.75
23240;PMS7003;11789;53.482;9.862;2023-11-19T06:49:27;25.75;21.75;12.00
23240;PMS7003;11789;53.482;9.862;2023-11-19T06:51:52;20.50;18.75;12.00
23240;PMS7003;11789;53.482;9.862;2023-11-19T06:54:18;24.50;19.50;11.50
23240;PMS7003;11789;53.482;9.862;2023-11-19T06:56:43;22.75;16.50;11.00
23240;PMS7003;11789;53.482;9.862;2023-11-19T06:59:08;19.25;18.75;12.25
23240;PMS7003;11789;53.482;9.862;2023-11-19T07:01:35;19.00;18.00;11.50
23240;PMS7003;11789;53.482;9.862;2023-11-19T07:04:01;25.50;21.50;14.00
23240;PMS7003;11789;53.482;9.862;2023-11-19T07:06:33;22.75;18.75;11.50
23240;PMS7003;11789;53.482;9.862;2023-11-19T07:08:58;22.50;20.50;12.00
23240;PMS7003;11789;53.482;9.862;2023-11-19T07:11:24;22.50;17.00;10.50
23240;PMS7003;11789;53.482;9.862;2023-11-19T07:13:49;21.50;16.50;10.00
23240;PMS7003;11789;53.482;9.862;2023-11-19T07:16:15;25.50;14.25;9.50
23240;PMS7003;11789;53.482;9.862;2023-11-19T07:18:40;18.75;15.25;10.75
23240;PMS7003;11789;53.482;9.862;2023-11-19T07:21:08;21.25;15.25;9.75
23240;PMS7003;11789;53.482;9.862;2023-11-19T07:23:35;14.00;14.00;9.00
23240;PMS7003;11789;53.482;9.862;2023-11-19T07:26:01;16.75;14.75;10.25
23240;PMS7003;11789;53.482;9.862;2023-11-19T07:28:30;19.25;15.50;10.25
23240;PMS7003;11789;53.482;9.862;2023-11-19T07:30:55;19.50;18.00;11.25
23240;PMS7003;11789;53.482;9.862;2023-11-19T07:33:21;18.00;16.00;11.00
23240;PMS7003;11789;53.482;9.862;2023-11-19T07:35:47;24.50;20.00;12.75
23240;PMS7003;11789;53.482;9.862;2023-11-19T07:38:13;25.75;19.00;12.00
23240;PMS7003;11789;53.482;9.862;2023-11-19T07:40:38;23.25;17.25;12.00
23240;PMS7003;11789;53.482;9.862;2023-11-19T07:43:03;22.00;17.00;11.00
23240;PMS7003;11789;53.482;9.862;2023-11-19T07:45:29;19.00;15.50;9.75
23240;PMS7003;11789;53.482;9.862;2023-11-19T07:47:54;18.25;16.50;9.00
23240;PMS7003;11789;53.482;9.862;2023-11-19T07:50:20;21.00;15.75;9.00
23240;PMS7003;11789;53.482;9.862;2023-11-19T07:52:45;16.00;12.25;6.50
23240;PMS7003;11789;53.482;9.862;2023-11-19T07:55:10;15.50;13.50;8.00
23240;PMS7003;11789;53.482;9.862;2023-11-19T07:57:37;11.75;9.50;6.75
23240;PMS7003;11789;53.482;9.862;2023-11-19T08:00:02;14.50;9.25;6.50
23240;PMS7003;11789;53.482;9.862;2023-11-19T08:02:29;14.25;10.25;7.00
23240;PMS7003;11789;53.482;9.862;2023-11-19T08:04:54;11.25;9.75;7.00
23240;PMS7003;11789;53.482;9.862;2023-11-19T08:07:20;15.00;9.50;6.00
23240;PMS7003;11789;53.482;9.862;2023-11-19T08:09:47;13.00;10.75;6.00
23240;PMS7003;11789;53.482;9.862;2023-11-19T08:12:13;12.25;8.50;6.00
23240;PMS7003;11789;53.482;9.862;2023-11-19T08:14:40;10.25;8.00;5.25
23240;PMS7003;11789;53.482;9.862;2023-11-19T08:17:06;9.75;6.50;3.50
23240;PMS7003;11789;53.482;9.862;2023-11-19T08:19:32;15.75;10.00;6.25
23240;PMS7003;11789;53.482;9.862;2023-11-19T08:21:57;13.50;8.00;6.00
23240;PMS7003;11789;53.482;9.862;2023-11-19T08:24:23;12.75;10.25;7.00
23240;PMS7003;11789;53.482;9.862;2023-11-19T08:26:48;16.50;10.75;6.25
23240;PMS7003;11789;53.482;9.862;2023-11-19T08:29:14;13.50;10.25;5.75
23240;PMS7003;11789;53.482;9.862;2023-11-19T08:31:39;17.75;13.50;7.00
23240;PMS7003;11789;53.482;9.862;2023-11-19T08:34:05;20.00;12.00;7.00
23240;PMS7003;11789;53.482;9.862;2023-11-19T08:36:34;14.00;11.50;7.50
23240;PMS7003;11789;53.482;9.862;2023-11-19T08:38:59;14.75;10.50;6.25
23240;PMS7003;11789;53.482;9.862;2023-11-19T08:41:25;17.50;6.50;4.75
23240;PMS7003;11789;53.482;9.862;2023-11-19T08:43:50;14.00;10.25;5.00
23240;PMS7003;11789;53.482;9.862;2023-11-19T08:46:16;7.00;7.00;4.00
23240;PMS7003;11789;53.482;9.862;2023-11-19T08:48:42;12.25;10.75;6.00
23240;PMS7003;11789;53.482;9.862;2023-11-19T08:51:07;15.25;11.25;6.00
23240;PMS7003;11789;53.482;9.862;2023-11-19T08:53:33;12.50;9.25;6.00
23240;PMS7003;11789;53.482;9.862;2023-11-19T08:55:59;12.75;8.50;5.00
23240;PMS7003;11789;53.482;9.862;2023-11-19T08:58:25;12.50;6.50;4.00
23240;PMS7003;11789;53.482;9.862;2023-11-19T09:00:51;12.75;8.50;4.75
23240;PMS7003;11789;53.482;9.862;2023-11-19T09:03:16;10.00;9.00;6.00
23240;PMS7003;11789;53.482;9.862;2023-11-19T09:05:42;10.50;9.00;5.25
23240;PMS7003;11789;53.482;9.862;2023-11-19T09:08:07;14.00;11.50;7.00
23240;PMS7003;11789;53.482;9.862;2023-11-19T09:10:33;12.50;10.00;5.00
23240;PMS7003;11789;53.482;9.862;2023-11-19T09:12:58;14.00;11.00;6.00
23240;PMS7003;11789;53.482;9.862;2023-11-19T09:15:24;13.75;10.75;5.75
23240;PMS7003;11789;53.482;9.862;2023-11-19T09:17:49;18.00;8.50;4.50
23240;PMS7003;11789;53.482;9.862;2023-11-19T09:20:15;14.25;10.00;5.25
23240;PMS7003;11789;53.482;9.862;2023-11-19T09:22:43;15.25;10.00;6.00
23240;PMS7003;11789;53.482;9.862;2023-11-19T09:25:09;10.50;8.75;4.75
23240;PMS7003;11789;53.482;9.862;2023-11-19T09:27:34;18.00;10.50;6.00
23240;PMS7003;11789;53.482;9.862;2023-11-19T09:30:00;17.00;10.75;5.75
23240;PMS7003;11789;53.482;9.862;2023-11-19T09:32:25;12.25;9.50;5.00
23240;PMS7003;11789;53.482;9.862;2023-11-19T09:34:51;11.25;7.75;4.00
23240;PMS7003;11789;53.482;9.862;2023-11-19T09:37:16;11.25;8.25;4.25
23240;PMS7003;11789;53.482;9.862;2023-11-19T09:39:42;19.25;13.00;6.00
23240;PMS7003;11789;53.482;9.862;2023-11-19T09:42:11;14.75;8.75;4.75
23240;PMS7003;11789;53.482;9.862;2023-11-19T09:44:40;14.25;9.75;6.00
23240;PMS7003;11789;53.482;9.862;2023-11-19T09:47:08;12.50;9.25;5.00
23240;PMS7003;11789;53.482;9.862;2023-11-19T09:49:35;10.25;5.75;4.00
23240;PMS7003;11789;53.482;9.862;2023-11-19T09:52:01;15.00;9.50;5.25
23240;PMS7003;11789;53.482;9.862;2023-11-19T09:54:27;13.25;10.50;5.50
23240;PMS7003;11789;53.482;9.862;2023-11-19T09:56:53;13.00;9.00;5.00
23240;PMS7003;11789;53.482;9.862;2023-11-19T09:59:24;13.25;8.50;4.00
23240;PMS7003;11789;53.482;9.862;2023-11-19T10:01:50;20.50;11.75;5.00
23240;PMS7003;11789;53.482;9.862;2023-11-19T10:04:16;10.50;6.50;3.75
23240;PMS7003;11789;53.482;9.862;2023-11-19T10:06:44;12.75;7.50;4.25
23240;PMS7003;11789;53.482;9.862;2023-11-19T10:09:09;12.00;9.00;4.00
23240;PMS7003;11789;53.482;9.862;2023-11-19T10:11:36;14.75;8.25;5.00
23240;PMS7003;11789;53.482;9.862;2023-11-19T10:14:02;16.00;8.75;5.00
23240;PMS7003;11789;53.482;9.862;2023-11-19T10:16:28;11.50;8.00;5.00
23240;PMS7003;11789;53.482;9.862;2023-11-19T10:18:55;8.50;6.50;4.00
23240;PMS7003;11789;53.482;9.862;2023-11-19T10:21:20;14.25;10.50;4.00
23240;PMS7003;11789;53.482;9.862;2023-11-19T10:23:47;16.50;8.00;4.50
23240;PMS7003;11789;53.482;9.862;2023-11-19T10:26:15;16.75;9.75;5.00
23240;PMS7003;11789;53.482;9.862;2023-11-19T10:28:40;12.50;7.25;3.25
23240;PMS7003;11789;53.482;9.862;2023-11-19T10:31:11;12.25;5.25;4.00
23240;PMS7003;11789;53.482;9.862;2023-11-19T10:33:41;15.75;9.50;4.00
23240;PMS7003;11789;53.482;9.862;2023-11-19T10:36:07;10.25;6.50;4.00
23240;PMS7003;11789;53.482;9.862;2023-11-19T10:38:33;14.50;9.00;5.00
23240;PMS7003;11789;53.482;9.862;2023-11-19T10:40:58;11.00;7.00;4.00
23240;PMS7003;11789;53.482;9.862;2023-11-19T10:43:24;14.25;7.50;4.00
23240;PMS7003;11789;53.482;9.862;2023-11-19T10:45:50;11.75;7.25;3.50
23240;PMS7003;11789;53.482;9.862;2023-11-19T10:48:17;16.75;8.75;3.50
23240;PMS7003;11789;53.482;9.862;2023-11-19T10:50:43;18.50;8.00;3.25
23240;PMS7003;11789;53.482;9.862;2023-11-19T10:53:10;14.75;6.00;3.25
23240;PMS7003;11789;53.482;9.862;2023-11-19T10:55:40;12.00;8.00;4.50
23240;PMS7003;11789;53.482;9.862;2023-11-19T10:58:07;11.75;7.75;4.00
23240;PMS7003;11789;53.482;9.862;2023-11-19T11:03:11;9.25;7.75;4.00
23240;PMS7003;11789;53.482;9.862;2023-11-19T11:05:41;11.75;6.75;3.00
23240;PMS7003;11789;53.482;9.862;2023-11-19T11:08:08;8.75;6.00;3.75
23240;PMS7003;11789;53.482;9.862;2023-11-19T11:10:36;8.50;7.75;5.00
23240;PMS7003;11789;53.482;9.862;2023-11-19T11:13:04;17.25;8.25;4.00
23240;PMS7003;11789;53.482;9.862;2023-11-19T11:15:30;7.75;5.75;3.00
23240;PMS7003;11789;53.482;9.862;2023-11-19T11:18:01;7.00;7.00;4.75
23240;PMS7003;11789;53.482;9.862;2023-11-19T11:20:30;13.75;6.00;4.00
23240;PMS7003;11789;53.482;9.862;2023-11-19T11:28:59;8.25;8.00;4.00
23240;PMS7003;11789;53.482;9.862;2023-11-19T11:37:18;9.75;5.00;3.50
23240;PMS7003;11789;53.482;9.862;2023-11-19T11:39:51;10.50;8.00;4.00
23240;PMS7003;11789;53.482;9.862;2023-11-19T11:44:57;17.00;8.50;4.00
23240;PMS7003;11789;53.482;9.862;2023-11-19T11:50:11;11.75;7.75;4.00
23240;PMS7003;11789;53.482;9.862;2023-11-19T11:53:20;8.50;6.00;3.00
23240;PMS7003;11789;53.482;9.862;2023-11-19T11:58:20;14.75;8.00;4.50
23240;PMS7003;11789;53.482;9.862;2023-11-19T12:00:51;12.00;8.25;4.00
23240;PMS7003;11789;53.482;9.862;2023-11-19T12:03:18;15.75;6.75;4.00
23240;PMS7003;11789;53.482;9.862;2023-11-19T12:05:49;11.75;7.00;4.00
23240;PMS7003;11789;53.482;9.862;2023-11-19T12:08:18;13.75;9.25;4.00
23240;PMS7003;11789;53.482;9.862;2023-11-19T12:10:52;16.75;10.00;5.00
23240;PMS7003;11789;53.482;9.862;2023-11-19T12:13:19;16.25;7.75;4.00
23240;PMS7003;11789;53.482;9.862;2023-11-19T12:18:29;17.50;9.75;5.00
23240;PMS7003;11789;53.482;9.862;2023-11-19T12:20:59;18.25;10.00;5.75
23240;PMS7003;11789;53.482;9.862;2023-11-19T12:23:29;8.50;8.50;5.00
23240;PMS7003;11789;53.482;9.862;2023-11-19T12:25:55;12.25;9.25;4.50
23240;PMS7003;11789;53.482;9.862;2023-11-19T12:28:21;13.00;6.25;4.00
23240;PMS7003;11789;53.482;9.862;2023-11-19T12:30:47;10.75;7.00;4.00
23240;PMS7003;11789;53.482;9.862;2023-11-19T12:33:13;13.25;6.50;3.00
23240;PMS7003;11789;53.482;9.862;2023-11-19T12:35:46;12.00;9.00;4.00
23240;PMS7003;11789;53.482;9.862;2023-11-19T12:38:22;12.75;10.25;5.00
23240;PMS7003;11789;53.482;9.862;2023-11-19T12:41:05;13.25;8.25;4.25
23240;PMS7003;11789;53.482;9.862;2023-11-19T12:43:32;8.00;6.50;3.00
23240;PMS7003;11789;53.482;9.862;2023-11-19T12:45:59;8.50;8.50;4.00
23240;PMS7003;11789;53.482;9.862;2023-11-19T12:48:25;11.75;5.75;3.25
23240;PMS7003;11789;53.482;9.862;2023-11-19T12:50:51;11.25;6.75;4.00
23240;PMS7003;11789;53.482;9.862;2023-11-19T12:53:24;11.00;8.00;3.75
23240;PMS7003;11789;53.482;9.862;2023-11-19T12:55:51;9.50;7.00;4.75
23240;PMS7003;11789;53.482;9.862;2023-11-19T13:01:03;16.50;9.75;5.00
23240;PMS7003;11789;53.482;9.862;2023-11-19T13:03:31;14.00;8.00;3.25
23240;PMS7003;11789;53.482;9.862;2023-11-19T13:06:02;11.25;6.00;3.00
23240;PMS7003;11789;53.482;9.862;2023-11-19T13:08:35;9.50;7.00;4.00
23240;PMS7003;11789;53.482;9.862;2023-11-19T13:11:05;8.00;6.25;4.00
23240;PMS7003;11789;53.482;9.862;2023-11-19T13:13:31;11.75;8.00;4.00
23240;PMS7003;11789;53.482;9.862;2023-11-19T13:16:04;15.50;9.00;5.00
23240;PMS7003;11789;53.482;9.862;2023-11-19T13:18:34;10.00;7.25;4.00
23240;PMS7003;11789;53.482;9.862;2023-11-19T13:21:00;14.75;10.75;5.75
23240;PMS7003;11789;53.482;9.862;2023-11-19T13:23:25;9.00;7.75;5.00
23240;PMS7003;11789;53.482;9.862;2023-11-19T13:25:51;9.25;7.00;4.00
23240;PMS7003;11789;53.482;9.862;2023-11-19T13:28:16;8.50;7.00;4.00
23240;PMS7003;11789;53.482;9.862;2023-11-19T13:30:41;10.75;6.25;4.00
23240;PMS7003;11789;53.482;9.862;2023-11-19T13:33:07;9.75;6.75;3.00
23240;PMS7003;11789;53.482;9.862;2023-11-19T13:35:32;15.25;7.75;4.00
23240;PMS7003;11789;53.482;9.862;2023-11-19T13:37:58;12.25;7.75;4.50
23240;PMS7003;11789;53.482;9.862;2023-11-19T13:40:23;12.50;7.00;5.00
23240;PMS7003;11789;53.482;9.862;2023-11-19T13:42:50;12.75;8.75;5.25
23240;PMS7003;11789;53.482;9.862;2023-11-19T13:45:15;10.75;9.25;5.00
23240;PMS7003;11789;53.482;9.862;2023-11-19T13:47:44;14.25;11.00;6.00
23240;PMS7003;11789;53.482;9.862;2023-11-19T13:50:11;13.00;8.00;4.25
23240;PMS7003;11789;53.482;9.862;2023-11-19T13:52:39;8.75;7.75;3.75
23240;PMS7003;11789;53.482;9.862;2023-11-19T13:55:06;18.00;8.00;4.50
23240;PMS7003;11789;53.482;9.862;2023-11-19T13:57:33;12.00;6.00;3.75
23240;PMS7003;11789;53.482;9.862;2023-11-19T14:00:03;8.50;7.00;4.00
23240;PMS7003;11789;53.482;9.862;2023-11-19T14:02:31;8.25;8.00;4.00
23240;PMS7003;11789;53.482;9.862;2023-11-19T14:04:57;15.00;8.25;4.25
23240;PMS7003;11789;53.482;9.862;2023-11-19T14:07:22;8.50;7.00;4.00
23240;PMS7003;11789;53.482;9.862;2023-11-19T14:09:48;10.50;7.50;3.75
23240;PMS7003;11789;53.482;9.862;2023-11-19T14:12:13;12.25;7.50;4.75
23240;PMS7003;11789;53.482;9.862;2023-11-19T14:14:39;13.50;7.25;5.00
23240;PMS7003;11789;53.482;9.862;2023-11-19T14:17:04;7.75;5.50;3.75
23240;PMS7003;11789;53.482;9.862;2023-11-19T14:19:30;12.00;9.00;5.00
23240;PMS7003;11789;53.482;9.862;2023-11-19T14:21:55;11.00;7.00;4.00
23240;PMS7003;11789;53.482;9.862;2023-11-19T14:24:21;7.25;6.00;4.00
23240;PMS7003;11789;53.482;9.862;2023-11-19T14:26:47;10.00;7.00;3.00
23240;PMS7003;11789;53.482;9.862;2023-11-19T14:29:14;8.50;5.75;3.50
23240;PMS7003;11789;53.482;9.862;2023-11-19T14:31:40;11.50;7.00;3.75